sensor_id;sensor_type;location;lat;lon;timestamp;P1;durP1;ratioP1;P2;durP2;ratioP2
3101;SDS011;1561;42.666;23.392;2023-07-09T00:02:27;4.47;;;4.15;;
3101;SDS011;1561;42.666;23.392;2023-07-09T00:04:55;7.10;;;4.35;;
3101;SDS011;1561;42.666;23.392;2023-07-09T00:07:35;7.00;;;4.57;;
3101;SDS011;1561;42.666;23.392;2023-07-09T00:10:08;8.00;;;4.50;;
3101;SDS011;1561;42.666;23.392;2023-07-09T00:12:41;7.88;;;4.55;;
3101;SDS011;1561;42.666;23.392;2023-07-09T00:15:13;5.25;;;4.85;;
3101;SDS011;1561;42.666;23.392;2023-07-09T00:17:43;5.95;;;4.40;;
3101;SDS011;1561;42.666;23.392;2023-07-09T00:20:13;5.35;;;4.88;;
3101;SDS011;1561;42.666;23.392;2023-07-09T00:22:47;6.75;;;4.50;;
3101;SDS011;1561;42.666;23.392;2023-07-09T00:25:18;7.75;;;4.25;;
3101;SDS011;1561;42.666;23.392;2023-07-09T00:27:46;4.95;;;4.45;;
3101;SDS011;1561;42.666;23.392;2023-07-09T00:30:17;4.45;;;4.15;;
3101;SDS011;1561;42.666;23.392;2023-07-09T00:32:48;6.70;;;6.00;;
3101;SDS011;1561;42.666;23.392;2023-07-09T00:35:17;5.45;;;4.47;;
3101;SDS011;1561;42.666;23.392;2023-07-09T00:37:45;9.40;;;5.07;;
3101;SDS011;1561;42.666;23.392;2023-07-09T00:40:17;5.13;;;4.22;;
3101;SDS011;1561;42.666;23.392;2023-07-09T00:42:48;5.65;;;4.40;;
3101;SDS011;1561;42.666;23.392;2023-07-09T00:45:19;4.43;;;4.13;;
3101;SDS011;1561;42.666;23.392;2023-07-09T00:47:53;4.93;;;4.50;;
3101;SDS011;1561;42.666;23.392;2023-07-09T00:50:33;5.00;;;4.50;;
3101;SDS011;1561;42.666;23.392;2023-07-09T00:53:04;4.85;;;4.45;;
3101;SDS011;1561;42.666;23.392;2023-07-09T00:55:44;4.43;;;4.13;;
3101;SDS011;1561;42.666;23.392;2023-07-09T00:58:18;5.82;;;4.78;;
3101;SDS011;1561;42.666;23.392;2023-07-09T01:00:53;4.80;;;4.20;;
3101;SDS011;1561;42.666;23.392;2023-07-09T01:03:31;5.28;;;4.10;;
3101;SDS011;1561;42.666;23.392;2023-07-09T01:06:02;4.78;;;4.30;;
3101;SDS011;1561;42.666;23.392;2023-07-09T01:08:37;6.13;;;4.07;;
3101;SDS011;1561;42.666;23.392;2023-07-09T01:11:17;9.18;;;4.50;;
3101;SDS011;1561;42.666;23.392;2023-07-09T01:13:46;7.72;;;4.30;;
3101;SDS011;1561;42.666;23.392;2023-07-09T01:16:16;5.05;;;4.47;;
3101;SDS011;1561;42.666;23.392;2023-07-09T01:18:43;4.97;;;4.57;;
3101;SDS011;1561;42.666;23.392;2023-07-09T01:21:17;5.22;;;4.82;;
3101;SDS011;1561;42.666;23.392;2023-07-09T01:23:45;5.30;;;4.80;;
3101;SDS011;1561;42.666;23.392;2023-07-09T01:26:15;4.90;;;4.50;;
3101;SDS011;1561;42.666;23.392;2023-07-09T01:28:52;5.93;;;4.90;;
3101;SDS011;1561;42.666;23.392;2023-07-09T01:31:21;5.22;;;4.82;;
3101;SDS011;1561;42.666;23.392;2023-07-09T01:33:49;6.85;;;4.85;;
3101;SDS011;1561;42.666;23.392;2023-07-09T01:36:21;13.65;;;5.38;;
3101;SDS011;1561;42.666;23.392;2023-07-09T01:39:02;8.85;;;5.65;;
3101;SDS011;1561;42.666;23.392;2023-07-09T01:41:31;6.72;;;5.90;;
3101;SDS011;1561;42.666;23.392;2023-07-09T01:44:07;8.73;;;5.97;;
3101;SDS011;1561;42.666;23.392;2023-07-09T01:46:35;7.70;;;6.18;;
3101;SDS011;1561;42.666;23.392;2023-07-09T01:49:07;16.02;;;7.47;;
3101;SDS011;1561;42.666;23.392;2023-07-09T01:51:35;7.57;;;6.85;;
3101;SDS011;1561;42.666;23.392;2023-07-09T01:54:08;7.70;;;6.90;;
3101;SDS011;1561;42.666;23.392;2023-07-09T01:56:46;8.43;;;6.80;;
3101;SDS011;1561;42.666;23.392;2023-07-09T01:59:16;9.25;;;7.68;;
3101;SDS011;1561;42.666;23.392;2023-07-09T02:01:46;8.20;;;7.40;;
3101;SDS011;1561;42.666;23.392;2023-07-09T02:04:15;7.78;;;6.97;;
3101;SDS011;1561;42.666;23.392;2023-07-09T02:06:50;8.40;;;7.22;;
3101;SDS011;1561;42.666;23.392;2023-07-09T02:09:23;10.77;;;7.53;;
3101;SDS011;1561;42.666;23.392;2023-07-09T02:11:58;8.30;;;6.77;;
3101;SDS011;1561;42.666;23.392;2023-07-09T02:14:27;8.33;;;7.53;;
3101;SDS011;1561;42.666;23.392;2023-07-09T02:16:55;9.10;;;7.90;;
3101;SDS011;1561;42.666;23.392;2023-07-09T02:19:25;8.37;;;7.40;;
3101;SDS011;1561;42.666;23.392;2023-07-09T02:21:54;9.70;;;7.20;;
3101;SDS011;1561;42.666;23.392;2023-07-09T02:24:21;8.30;;;7.50;;
3101;SDS011;1561;42.666;23.392;2023-07-09T02:26:50;9.57;;;7.70;;
3101;SDS011;1561;42.666;23.392;2023-07-09T02:29:18;9.77;;;8.77;;
3101;SDS011;1561;42.666;23.392;2023-07-09T02:31:47;13.53;;;8.70;;
3101;SDS011;1561;42.666;23.392;2023-07-09T02:34:15;8.40;;;7.70;;
3101;SDS011;1561;42.666;23.392;2023-07-09T02:36:44;10.43;;;8.43;;
3101;SDS011;1561;42.666;23.392;2023-07-09T02:39:16;10.33;;;9.17;;
3101;SDS011;1561;42.666;23.392;2023-07-09T02:41:46;10.53;;;8.17;;
3101;SDS011;1561;42.666;23.392;2023-07-09T02:44:14;10.00;;;9.10;;
3101;SDS011;1561;42.666;23.392;2023-07-09T02:46:44;9.90;;;8.90;;
3101;SDS011;1561;42.666;23.392;2023-07-09T02:49:12;10.53;;;9.50;;
3101;SDS011;1561;42.666;23.392;2023-07-09T02:51:42;10.87;;;9.20;;
3101;SDS011;1561;42.666;23.392;2023-07-09T02:54:14;9.37;;;8.57;;
3101;SDS011;1561;42.666;23.392;2023-07-09T02:56:46;10.97;;;9.00;;
3101;SDS011;1561;42.666;23.392;2023-07-09T02:59:15;9.67;;;8.80;;
3101;SDS011;1561;42.666;23.392;2023-07-09T03:01:45;9.00;;;8.00;;
3101;SDS011;1561;42.666;23.392;2023-07-09T03:04:20;9.30;;;7.60;;
3101;SDS011;1561;42.666;23.392;2023-07-09T03:06:48;8.30;;;7.57;;
3101;SDS011;1561;42.666;23.392;2023-07-09T03:09:22;8.77;;;7.97;;
3101;SDS011;1561;42.666;23.392;2023-07-09T03:11:49;13.73;;;8.43;;
3101;SDS011;1561;42.666;23.392;2023-07-09T03:14:17;8.80;;;8.00;;
3101;SDS011;1561;42.666;23.392;2023-07-09T03:16:44;9.60;;;8.70;;
3101;SDS011;1561;42.666;23.392;2023-07-09T03:19:12;9.30;;;8.33;;
3101;SDS011;1561;42.666;23.392;2023-07-09T03:21:41;9.13;;;8.23;;
3101;SDS011;1561;42.666;23.392;2023-07-09T03:24:10;11.03;;;9.33;;
3101;SDS011;1561;42.666;23.392;2023-07-09T03:26:43;9.67;;;8.70;;
3101;SDS011;1561;42.666;23.392;2023-07-09T03:29:13;9.80;;;8.77;;
3101;SDS011;1561;42.666;23.392;2023-07-09T03:31:43;10.67;;;9.70;;
3101;SDS011;1561;42.666;23.392;2023-07-09T03:34:10;10.13;;;8.67;;
3101;SDS011;1561;42.666;23.392;2023-07-09T03:36:40;8.57;;;7.78;;
3101;SDS011;1561;42.666;23.392;2023-07-09T03:39:08;7.78;;;7.07;;
3101;SDS011;1561;42.666;23.392;2023-07-09T03:41:37;8.45;;;7.45;;
3101;SDS011;1561;42.666;23.392;2023-07-09T03:44:06;7.78;;;6.97;;
3101;SDS011;1561;42.666;23.392;2023-07-09T03:46:33;8.93;;;7.03;;
3101;SDS011;1561;42.666;23.392;2023-07-09T03:49:03;6.55;;;6.05;;
3101;SDS011;1561;42.666;23.392;2023-07-09T03:51:31;8.93;;;7.00;;
3101;SDS011;1561;42.666;23.392;2023-07-09T03:53:59;10.38;;;6.60;;
3101;SDS011;1561;42.666;23.392;2023-07-09T03:56:28;10.38;;;6.13;;
3101;SDS011;1561;42.666;23.392;2023-07-09T03:58:56;9.15;;;6.20;;
3101;SDS011;1561;42.666;23.392;2023-07-09T04:01:28;6.53;;;5.78;;
3101;SDS011;1561;42.666;23.392;2023-07-09T04:03:58;8.63;;;6.43;;
3101;SDS011;1561;42.666;23.392;2023-07-09T04:06:26;7.40;;;6.60;;
3101;SDS011;1561;42.666;23.392;2023-07-09T04:08:54;6.53;;;6.03;;
3101;SDS011;1561;42.666;23.392;2023-07-09T04:11:21;6.47;;;5.88;;
3101;SDS011;1561;42.666;23.392;2023-07-09T04:13:52;7.13;;;6.50;;
3101;SDS011;1561;42.666;23.392;2023-07-09T04:16:20;7.95;;;6.55;;
3101;SDS011;1561;42.666;23.392;2023-07-09T04:18:55;8.55;;;7.28;;
3101;SDS011;1561;42.666;23.392;2023-07-09T04:21:22;6.85;;;6.25;;
3101;SDS011;1561;42.666;23.392;2023-07-09T04:23:49;7.82;;;7.15;;
3101;SDS011;1561;42.666;23.392;2023-07-09T04:26:17;8.98;;;7.68;;
3101;SDS011;1561;42.666;23.392;2023-07-09T04:28:49;9.15;;;7.00;;
3101;SDS011;1561;42.666;23.392;2023-07-09T04:31:16;9.90;;;8.10;;
3101;SDS011;1561;42.666;23.392;2023-07-09T04:33:44;11.70;;;8.90;;
3101;SDS011;1561;42.666;23.392;2023-07-09T04:36:16;12.90;;;9.60;;
3101;SDS011;1561;42.666;23.392;2023-07-09T04:38:43;10.07;;;9.10;;
3101;SDS011;1561;42.666;23.392;2023-07-09T04:41:13;14.25;;;9.48;;
3101;SDS011;1561;42.666;23.392;2023-07-09T04:43:40;10.00;;;9.02;;
3101;SDS011;1561;42.666;23.392;2023-07-09T04:46:08;9.32;;;8.50;;
3101;SDS011;1561;42.666;23.392;2023-07-09T04:48:37;9.10;;;8.30;;
3101;SDS011;1561;42.666;23.392;2023-07-09T04:51:06;15.95;;;9.77;;
3101;SDS011;1561;42.666;23.392;2023-07-09T04:53:36;9.77;;;8.50;;
3101;SDS011;1561;42.666;23.392;2023-07-09T04:56:04;9.60;;;8.43;;
3101;SDS011;1561;42.666;23.392;2023-07-09T04:58:34;16.15;;;7.90;;
3101;SDS011;1561;42.666;23.392;2023-07-09T05:01:02;11.27;;;9.15;;
3101;SDS011;1561;42.666;23.392;2023-07-09T05:03:32;12.43;;;9.68;;
3101;SDS011;1561;42.666;23.392;2023-07-09T05:06:00;9.32;;;8.45;;
3101;SDS011;1561;42.666;23.392;2023-07-09T05:08:29;8.90;;;8.20;;
3101;SDS011;1561;42.666;23.392;2023-07-09T05:11:10;9.05;;;8.35;;
3101;SDS011;1561;42.666;23.392;2023-07-09T05:13:38;8.88;;;7.80;;
3101;SDS011;1561;42.666;23.392;2023-07-09T05:16:08;8.80;;;8.10;;
3101;SDS011;1561;42.666;23.392;2023-07-09T05:18:41;8.35;;;7.55;;
3101;SDS011;1561;42.666;23.392;2023-07-09T05:21:11;8.40;;;7.63;;
3101;SDS011;1561;42.666;23.392;2023-07-09T05:23:37;9.40;;;8.50;;
3101;SDS011;1561;42.666;23.392;2023-07-09T05:26:11;8.45;;;7.65;;
3101;SDS011;1561;42.666;23.392;2023-07-09T05:28:43;12.30;;;10.85;;
3101;SDS011;1561;42.666;23.392;2023-07-09T05:31:11;11.52;;;8.73;;
3101;SDS011;1561;42.666;23.392;2023-07-09T05:33:44;12.90;;;9.02;;
3101;SDS011;1561;42.666;23.392;2023-07-09T05:36:13;8.55;;;7.82;;
3101;SDS011;1561;42.666;23.392;2023-07-09T05:38:41;10.50;;;9.50;;
3101;SDS011;1561;42.666;23.392;2023-07-09T05:41:10;9.10;;;8.20;;
3101;SDS011;1561;42.666;23.392;2023-07-09T05:43:42;10.77;;;7.40;;
3101;SDS011;1561;42.666;23.392;2023-07-09T05:46:12;8.90;;;8.02;;
3101;SDS011;1561;42.666;23.392;2023-07-09T05:48:43;7.80;;;7.10;;
3101;SDS011;1561;42.666;23.392;2023-07-09T05:51:14;8.70;;;7.57;;
3101;SDS011;1561;42.666;23.392;2023-07-09T05:53:42;7.90;;;7.10;;
3101;SDS011;1561;42.666;23.392;2023-07-09T05:56:18;7.57;;;6.07;;
3101;SDS011;1561;42.666;23.392;2023-07-09T05:58:48;6.97;;;6.38;;
3101;SDS011;1561;42.666;23.392;2023-07-09T06:01:18;7.53;;;6.68;;
3101;SDS011;1561;42.666;23.392;2023-07-09T06:03:46;9.00;;;6.93;;
3101;SDS011;1561;42.666;23.392;2023-07-09T06:06:13;6.43;;;5.82;;
3101;SDS011;1561;42.666;23.392;2023-07-09T06:08:40;9.13;;;5.50;;
3101;SDS011;1561;42.666;23.392;2023-07-09T06:11:06;7.95;;;5.10;;
3101;SDS011;1561;42.666;23.392;2023-07-09T06:13:38;7.18;;;5.57;;
3101;SDS011;1561;42.666;23.392;2023-07-09T06:16:05;5.97;;;4.97;;
3101;SDS011;1561;42.666;23.392;2023-07-09T06:18:33;8.00;;;6.35;;
3101;SDS011;1561;42.666;23.392;2023-07-09T06:21:02;5.93;;;5.35;;
3101;SDS011;1561;42.666;23.392;2023-07-09T06:23:30;5.63;;;5.13;;
3101;SDS011;1561;42.666;23.392;2023-07-09T06:25:57;6.57;;;5.50;;
3101;SDS011;1561;42.666;23.392;2023-07-09T06:28:25;6.07;;;5.32;;
3101;SDS011;1561;42.666;23.392;2023-07-09T06:30:56;7.43;;;5.10;;
3101;SDS011;1561;42.666;23.392;2023-07-09T06:33:26;5.75;;;4.97;;
3101;SDS011;1561;42.666;23.392;2023-07-09T06:35:55;5.32;;;4.93;;
3101;SDS011;1561;42.666;23.392;2023-07-09T06:38:26;6.78;;;5.78;;
3101;SDS011;1561;42.666;23.392;2023-07-09T06:40:53;5.93;;;5.28;;
3101;SDS011;1561;42.666;23.392;2023-07-09T06:43:22;5.43;;;4.70;;
3101;SDS011;1561;42.666;23.392;2023-07-09T06:45:54;6.68;;;5.05;;
3101;SDS011;1561;42.666;23.392;2023-07-09T06:48:26;5.72;;;5.22;;
3101;SDS011;1561;42.666;23.392;2023-07-09T06:50:57;6.35;;;5.32;;
3101;SDS011;1561;42.666;23.392;2023-07-09T06:53:28;6.72;;;5.55;;
3101;SDS011;1561;42.666;23.392;2023-07-09T06:56:00;9.52;;;5.90;;
3101;SDS011;1561;42.666;23.392;2023-07-09T06:58:29;5.72;;;5.22;;
3101;SDS011;1561;42.666;23.392;2023-07-09T07:01:02;5.68;;;5.07;;
3101;SDS011;1561;42.666;23.392;2023-07-09T07:03:31;5.15;;;4.75;;
3101;SDS011;1561;42.666;23.392;2023-07-09T07:05:58;5.60;;;5.10;;
3101;SDS011;1561;42.666;23.392;2023-07-09T07:08:25;8.07;;;6.88;;
3101;SDS011;1561;42.666;23.392;2023-07-09T07:10:54;6.90;;;5.32;;
3101;SDS011;1561;42.666;23.392;2023-07-09T07:13:27;5.38;;;4.97;;
3101;SDS011;1561;42.666;23.392;2023-07-09T07:15:57;6.15;;;5.63;;
3101;SDS011;1561;42.666;23.392;2023-07-09T07:18:25;5.65;;;5.20;;
3101;SDS011;1561;42.666;23.392;2023-07-09T07:20:54;8.27;;;5.30;;
3101;SDS011;1561;42.666;23.392;2023-07-09T07:23:23;7.65;;;6.68;;
3101;SDS011;1561;42.666;23.392;2023-07-09T07:25:50;7.38;;;5.60;;
3101;SDS011;1561;42.666;23.392;2023-07-09T07:28:18;6.18;;;5.57;;
3101;SDS011;1561;42.666;23.392;2023-07-09T07:30:45;5.53;;;5.07;;
3101;SDS011;1561;42.666;23.392;2023-07-09T07:33:13;6.07;;;5.53;;
3101;SDS011;1561;42.666;23.392;2023-07-09T07:35:42;7.32;;;5.53;;
3101;SDS011;1561;42.666;23.392;2023-07-09T07:38:09;5.30;;;4.90;;
3101;SDS011;1561;42.666;23.392;2023-07-09T07:40:36;5.55;;;4.82;;
3101;SDS011;1561;42.666;23.392;2023-07-09T07:43:03;5.05;;;4.60;;
3101;SDS011;1561;42.666;23.392;2023-07-09T07:45:31;4.70;;;4.20;;
3101;SDS011;1561;42.666;23.392;2023-07-09T07:48:00;6.32;;;5.68;;
3101;SDS011;1561;42.666;23.392;2023-07-09T07:50:40;6.40;;;5.00;;
3101;SDS011;1561;42.666;23.392;2023-07-09T07:53:12;5.60;;;4.95;;
3101;SDS011;1561;42.666;23.392;2023-07-09T07:55:40;5.15;;;4.75;;
3101;SDS011;1561;42.666;23.392;2023-07-09T07:58:12;6.80;;;6.15;;
3101;SDS011;1561;42.666;23.392;2023-07-09T08:00:40;6.63;;;4.35;;
3101;SDS011;1561;42.666;23.392;2023-07-09T08:03:07;8.63;;;4.38;;
3101;SDS011;1561;42.666;23.392;2023-07-09T08:05:35;5.85;;;4.68;;
3101;SDS011;1561;42.666;23.392;2023-07-09T08:08:03;5.40;;;4.93;;
3101;SDS011;1561;42.666;23.392;2023-07-09T08:10:32;4.70;;;4.20;;
3101;SDS011;1561;42.666;23.392;2023-07-09T08:12:59;8.35;;;5.15;;
3101;SDS011;1561;42.666;23.392;2023-07-09T08:15:27;4.60;;;4.28;;
3101;SDS011;1561;42.666;23.392;2023-07-09T08:17:54;5.05;;;4.65;;
3101;SDS011;1561;42.666;23.392;2023-07-09T08:20:21;5.15;;;4.55;;
3101;SDS011;1561;42.666;23.392;2023-07-09T08:22:50;4.63;;;4.30;;
3101;SDS011;1561;42.666;23.392;2023-07-09T08:25:19;6.45;;;5.85;;
3101;SDS011;1561;42.666;23.392;2023-07-09T08:27:48;4.85;;;4.50;;
3101;SDS011;1561;42.666;23.392;2023-07-09T08:30:15;6.75;;;6.15;;
3101;SDS011;1561;42.666;23.392;2023-07-09T08:32:42;5.13;;;4.35;;
3101;SDS011;1561;42.666;23.392;2023-07-09T08:35:09;8.18;;;7.32;;
3101;SDS011;1561;42.666;23.392;2023-07-09T08:37:37;5.55;;;5.15;;
3101;SDS011;1561;42.666;23.392;2023-07-09T08:40:07;5.10;;;4.60;;
3101;SDS011;1561;42.666;23.392;2023-07-09T08:42:41;5.32;;;4.90;;
3101;SDS011;1561;42.666;23.392;2023-07-09T08:45:18;5.68;;;5.13;;
3101;SDS011;1561;42.666;23.392;2023-07-09T08:47:57;5.20;;;4.70;;
3101;SDS011;1561;42.666;23.392;2023-07-09T08:50:31;6.28;;;5.70;;
3101;SDS011;1561;42.666;23.392;2023-07-09T08:53:03;5.50;;;4.93;;
3101;SDS011;1561;42.666;23.392;2023-07-09T08:55:31;5.80;;;5.30;;
3101;SDS011;1561;42.666;23.392;2023-07-09T08:58:09;9.55;;;7.38;;
3101;SDS011;1561;42.666;23.392;2023-07-09T09:00:42;7.03;;;5.75;;
3101;SDS011;1561;42.666;23.392;2023-07-09T09:03:20;6.03;;;5.00;;
3101;SDS011;1561;42.666;23.392;2023-07-09T09:05:59;5.90;;;5.30;;
3101;SDS011;1561;42.666;23.392;2023-07-09T09:08:30;5.38;;;4.88;;
3101;SDS011;1561;42.666;23.392;2023-07-09T09:11:07;6.00;;;5.50;;
3101;SDS011;1561;42.666;23.392;2023-07-09T09:13:40;7.18;;;5.40;;
3101;SDS011;1561;42.666;23.392;2023-07-09T09:16:12;6.25;;;5.63;;
3101;SDS011;1561;42.666;23.392;2023-07-09T09:18:48;8.27;;;5.50;;
3101;SDS011;1561;42.666;23.392;2023-07-09T09:21:23;6.57;;;5.30;;
3101;SDS011;1561;42.666;23.392;2023-07-09T09:23:56;6.03;;;5.47;;
3101;SDS011;1561;42.666;23.392;2023-07-09T09:26:26;5.50;;;5.07;;
3101;SDS011;1561;42.666;23.392;2023-07-09T09:28:59;9.35;;;5.80;;
3101;SDS011;1561;42.666;23.392;2023-07-09T09:31:33;6.75;;;6.05;;
3101;SDS011;1561;42.666;23.392;2023-07-09T09:34:01;5.68;;;5.28;;
3101;SDS011;1561;42.666;23.392;2023-07-09T09:36:30;6.05;;;5.15;;
3101;SDS011;1561;42.666;23.392;2023-07-09T09:39:03;7.05;;;5.68;;
3101;SDS011;1561;42.666;23.392;2023-07-09T09:41:33;6.38;;;5.88;;
3101;SDS011;1561;42.666;23.392;2023-07-09T09:44:05;5.90;;;5.40;;
3101;SDS011;1561;42.666;23.392;2023-07-09T09:46:44;5.43;;;5.10;;
3101;SDS011;1561;42.666;23.392;2023-07-09T09:49:11;6.35;;;5.63;;
3101;SDS011;1561;42.666;23.392;2023-07-09T09:51:40;5.72;;;5.25;;
3101;SDS011;1561;42.666;23.392;2023-07-09T09:54:18;7.10;;;6.53;;
3101;SDS011;1561;42.666;23.392;2023-07-09T09:56:48;7.35;;;6.32;;
3101;SDS011;1561;42.666;23.392;2023-07-09T09:59:18;10.27;;;9.25;;
3101;SDS011;1561;42.666;23.392;2023-07-09T10:01:55;5.00;;;4.60;;
3101;SDS011;1561;42.666;23.392;2023-07-09T10:04:24;6.50;;;6.03;;
3101;SDS011;1561;42.666;23.392;2023-07-09T10:06:52;5.72;;;5.32;;
3101;SDS011;1561;42.666;23.392;2023-07-09T10:09:26;5.95;;;5.55;;
3101;SDS011;1561;42.666;23.392;2023-07-09T10:12:02;7.53;;;6.93;;
3101;SDS011;1561;42.666;23.392;2023-07-09T10:14:38;5.90;;;5.30;;
3101;SDS011;1561;42.666;23.392;2023-07-09T10:17:18;5.43;;;5.03;;
3101;SDS011;1561;42.666;23.392;2023-07-09T10:19:55;5.50;;;5.10;;
3101;SDS011;1561;42.666;23.392;2023-07-09T10:22:39;5.35;;;5.05;;
3101;SDS011;1561;42.666;23.392;2023-07-09T10:25:15;5.32;;;5.03;;
3101;SDS011;1561;42.666;23.392;2023-07-09T10:28:07;6.05;;;5.60;;
3101;SDS011;1561;42.666;23.392;2023-07-09T10:31:03;5.80;;;5.20;;
3101;SDS011;1561;42.666;23.392;2023-07-09T10:33:39;5.80;;;5.18;;
3101;SDS011;1561;42.666;23.392;2023-07-09T10:36:20;5.68;;;5.28;;
3101;SDS011;1561;42.666;23.392;2023-07-09T10:39:00;5.90;;;5.40;;
3101;SDS011;1561;42.666;23.392;2023-07-09T10:41:35;5.28;;;4.88;;
3101;SDS011;1561;42.666;23.392;2023-07-09T10:44:06;5.25;;;4.95;;
3101;SDS011;1561;42.666;23.392;2023-07-09T10:46:46;4.93;;;4.53;;
3101;SDS011;1561;42.666;23.392;2023-07-09T10:49:22;5.03;;;4.53;;
3101;SDS011;1561;42.666;23.392;2023-07-09T10:52:00;5.68;;;5.28;;
3101;SDS011;1561;42.666;23.392;2023-07-09T10:54:37;5.10;;;4.80;;
3101;SDS011;1561;42.666;23.392;2023-07-09T10:57:12;5.95;;;5.57;;
3101;SDS011;1561;42.666;23.392;2023-07-09T10:59:47;5.72;;;5.30;;
3101;SDS011;1561;42.666;23.392;2023-07-09T11:02:18;5.00;;;4.60;;
3101;SDS011;1561;42.666;23.392;2023-07-09T11:04:58;5.05;;;4.55;;
3101;SDS011;1561;42.666;23.392;2023-07-09T11:07:29;4.53;;;4.13;;
3101;SDS011;1561;42.666;23.392;2023-07-09T11:10:06;5.88;;;5.38;;
3101;SDS011;1561;42.666;23.392;2023-07-09T11:12:53;5.55;;;5.15;;
3101;SDS011;1561;42.666;23.392;2023-07-09T11:15:27;5.20;;;4.85;;
3101;SDS011;1561;42.666;23.392;2023-07-09T11:18:04;5.13;;;4.72;;
3101;SDS011;1561;42.666;23.392;2023-07-09T11:20:36;5.00;;;4.57;;
3101;SDS011;1561;42.666;23.392;2023-07-09T11:23:17;5.43;;;4.82;;
3101;SDS011;1561;42.666;23.392;2023-07-09T11:25:47;5.35;;;4.85;;
3101;SDS011;1561;42.666;23.392;2023-07-09T11:28:33;5.13;;;4.63;;
3101;SDS011;1561;42.666;23.392;2023-07-09T11:31:04;5.00;;;4.60;;
3101;SDS011;1561;42.666;23.392;2023-07-09T11:33:34;6.32;;;4.72;;
3101;SDS011;1561;42.666;23.392;2023-07-09T11:36:23;5.25;;;4.85;;
3101;SDS011;1561;42.666;23.392;2023-07-09T11:38:52;5.20;;;4.80;;
3101;SDS011;1561;42.666;23.392;2023-07-09T11:44:16;5.15;;;4.65;;
3101;SDS011;1561;42.666;23.392;2023-07-09T11:46:52;4.63;;;4.32;;
3101;SDS011;1561;42.666;23.392;2023-07-09T11:49:32;5.03;;;4.63;;
3101;SDS011;1561;42.666;23.392;2023-07-09T11:52:16;4.65;;;4.30;;
3101;SDS011;1561;42.666;23.392;2023-07-09T11:54:48;7.40;;;4.80;;
3101;SDS011;1561;42.666;23.392;2023-07-09T11:57:16;8.88;;;4.85;;
3101;SDS011;1561;42.666;23.392;2023-07-09T11:59:46;5.20;;;4.80;;
3101;SDS011;1561;42.666;23.392;2023-07-09T12:02:16;4.85;;;4.35;;
3101;SDS011;1561;42.666;23.392;2023-07-09T12:04:47;5.10;;;4.70;;
3101;SDS011;1561;42.666;23.392;2023-07-09T12:07:18;4.82;;;4.43;;
3101;SDS011;1561;42.666;23.392;2023-07-09T12:09:52;5.03;;;4.47;;
3101;SDS011;1561;42.666;23.392;2023-07-09T12:12:25;14.85;;;12.10;;
3101;SDS011;1561;42.666;23.392;2023-07-09T12:14:53;5.43;;;5.03;;
3101;SDS011;1561;42.666;23.392;2023-07-09T12:17:23;8.13;;;4.60;;
3101;SDS011;1561;42.666;23.392;2023-07-09T12:19:55;5.38;;;5.03;;
3101;SDS011;1561;42.666;23.392;2023-07-09T12:22:24;5.82;;;5.25;;
3101;SDS011;1561;42.666;23.392;2023-07-09T12:24:53;5.32;;;4.93;;
3101;SDS011;1561;42.666;23.392;2023-07-09T12:27:23;5.55;;;5.05;;
3101;SDS011;1561;42.666;23.392;2023-07-09T12:29:56;6.05;;;5.55;;
3101;SDS011;1561;42.666;23.392;2023-07-09T12:32:31;4.90;;;4.60;;
3101;SDS011;1561;42.666;23.392;2023-07-09T12:34:58;5.50;;;5.10;;
3101;SDS011;1561;42.666;23.392;2023-07-09T12:37:32;5.10;;;4.80;;
3101;SDS011;1561;42.666;23.392;2023-07-09T12:40:00;6.20;;;4.90;;
3101;SDS011;1561;42.666;23.392;2023-07-09T12:42:31;5.00;;;4.60;;
3101;SDS011;1561;42.666;23.392;2023-07-09T12:45:02;6.13;;;5.72;;
3101;SDS011;1561;42.666;23.392;2023-07-09T12:47:30;5.53;;;5.03;;
3101;SDS011;1561;42.666;23.392;2023-07-09T12:50:03;5.18;;;4.68;;
3101;SDS011;1561;42.666;23.392;2023-07-09T12:52:47;5.32;;;4.82;;
3101;SDS011;1561;42.666;23.392;2023-07-09T12:55:19;7.75;;;5.22;;
3101;SDS011;1561;42.666;23.392;2023-07-09T12:57:48;5.53;;;5.13;;
3101;SDS011;1561;42.666;23.392;2023-07-09T13:00:16;10.20;;;8.27;;
3101;SDS011;1561;42.666;23.392;2023-07-09T13:02:51;8.38;;;6.97;;
3101;SDS011;1561;42.666;23.392;2023-07-09T13:05:23;7.00;;;6.38;;
3101;SDS011;1561;42.666;23.392;2023-07-09T13:07:58;9.75;;;7.65;;
3101;SDS011;1561;42.666;23.392;2023-07-09T13:10:30;6.05;;;5.63;;
3101;SDS011;1561;42.666;23.392;2023-07-09T13:13:00;14.00;;;6.13;;
3101;SDS011;1561;42.666;23.392;2023-07-09T13:15:31;5.95;;;5.45;;
3101;SDS011;1561;42.666;23.392;2023-07-09T13:18:09;5.13;;;4.63;;
3101;SDS011;1561;42.666;23.392;2023-07-09T13:20:53;6.60;;;6.10;;
3101;SDS011;1561;42.666;23.392;2023-07-09T13:23:28;10.27;;;7.72;;
3101;SDS011;1561;42.666;23.392;2023-07-09T13:25:56;9.77;;;7.75;;
3101;SDS011;1561;42.666;23.392;2023-07-09T13:28:26;11.40;;;9.38;;
3101;SDS011;1561;42.666;23.392;2023-07-09T13:31:08;6.07;;;5.10;;
3101;SDS011;1561;42.666;23.392;2023-07-09T13:33:40;10.10;;;9.07;;
3101;SDS011;1561;42.666;23.392;2023-07-09T13:36:10;5.82;;;5.43;;
3101;SDS011;1561;42.666;23.392;2023-07-09T13:38:41;5.78;;;5.35;;
3101;SDS011;1561;42.666;23.392;2023-07-09T13:41:11;7.70;;;6.88;;
3101;SDS011;1561;42.666;23.392;2023-07-09T13:43:42;7.18;;;5.70;;
3101;SDS011;1561;42.666;23.392;2023-07-09T13:46:12;5.50;;;5.00;;
3101;SDS011;1561;42.666;23.392;2023-07-09T13:48:42;5.53;;;5.13;;
3101;SDS011;1561;42.666;23.392;2023-07-09T13:51:15;26.55;;;18.33;;
3101;SDS011;1561;42.666;23.392;2023-07-09T13:53:47;5.82;;;5.20;;
3101;SDS011;1561;42.666;23.392;2023-07-09T13:56:17;7.22;;;5.45;;
3101;SDS011;1561;42.666;23.392;2023-07-09T13:58:46;6.63;;;5.85;;
3101;SDS011;1561;42.666;23.392;2023-07-09T14:01:17;6.32;;;5.32;;
3101;SDS011;1561;42.666;23.392;2023-07-09T14:03:47;6.65;;;6.15;;
3101;SDS011;1561;42.666;23.392;2023-07-09T14:06:15;6.10;;;5.60;;
3101;SDS011;1561;42.666;23.392;2023-07-09T14:08:44;6.60;;;6.00;;
3101;SDS011;1561;42.666;23.392;2023-07-09T14:11:16;5.45;;;5.05;;
3101;SDS011;1561;42.666;23.392;2023-07-09T14:13:46;6.43;;;5.85;;
3101;SDS011;1561;42.666;23.392;2023-07-09T14:16:14;7.85;;;4.95;;
3101;SDS011;1561;42.666;23.392;2023-07-09T14:18:41;5.40;;;5.00;;
3101;SDS011;1561;42.666;23.392;2023-07-09T14:21:11;6.43;;;5.82;;
3101;SDS011;1561;42.666;23.392;2023-07-09T14:23:41;8.60;;;5.07;;
3101;SDS011;1561;42.666;23.392;2023-07-09T14:26:08;5.93;;;5.10;;
3101;SDS011;1561;42.666;23.392;2023-07-09T14:28:37;7.60;;;5.45;;
3101;SDS011;1561;42.666;23.392;2023-07-09T14:31:04;5.75;;;5.25;;
3101;SDS011;1561;42.666;23.392;2023-07-09T14:33:44;7.85;;;5.70;;
3101;SDS011;1561;42.666;23.392;2023-07-09T14:36:14;7.38;;;5.47;;
3101;SDS011;1561;42.666;23.392;2023-07-09T14:38:44;5.55;;;5.15;;
3101;SDS011;1561;42.666;23.392;2023-07-09T14:41:19;7.45;;;5.70;;
3101;SDS011;1561;42.666;23.392;2023-07-09T14:43:56;6.55;;;5.88;;
3101;SDS011;1561;42.666;23.392;2023-07-09T14:46:24;5.72;;;5.32;;
3101;SDS011;1561;42.666;23.392;2023-07-09T14:48:51;7.45;;;5.82;;
3101;SDS011;1561;42.666;23.392;2023-07-09T14:51:20;9.85;;;8.25;;
3101;SDS011;1561;42.666;23.392;2023-07-09T14:53:47;34.15;;;19.20;;
3101;SDS011;1561;42.666;23.392;2023-07-09T14:56:15;27.38;;;17.90;;
3101;SDS011;1561;42.666;23.392;2023-07-09T14:58:46;6.35;;;5.95;;
3101;SDS011;1561;42.666;23.392;2023-07-09T15:01:16;5.50;;;5.10;;
3101;SDS011;1561;42.666;23.392;2023-07-09T15:03:43;7.47;;;5.38;;
3101;SDS011;1561;42.666;23.392;2023-07-09T15:06:10;7.10;;;6.45;;
3101;SDS011;1561;42.666;23.392;2023-07-09T15:08:38;6.32;;;4.55;;
3101;SDS011;1561;42.666;23.392;2023-07-09T15:11:05;6.13;;;4.60;;
3101;SDS011;1561;42.666;23.392;2023-07-09T15:13:34;5.95;;;5.43;;
3101;SDS011;1561;42.666;23.392;2023-07-09T15:16:03;8.00;;;5.78;;
3101;SDS011;1561;42.666;23.392;2023-07-09T15:18:33;5.50;;;5.13;;
3101;SDS011;1561;42.666;23.392;2023-07-09T15:21:02;5.53;;;5.13;;
3101;SDS011;1561;42.666;23.392;2023-07-09T15:23:30;5.50;;;5.10;;
3101;SDS011;1561;42.666;23.392;2023-07-09T15:26:04;5.35;;;4.95;;
3101;SDS011;1561;42.666;23.392;2023-07-09T15:28:40;6.45;;;5.63;;